sensor_id;sensor_type;location;lat;lon;timestamp;pressure;altitude;pressure_sealevel;temperature;humidity
30343;BME280;17145;49.902;8.680;'2023-05-10 01:59:33';99330;;;13;64
30343;BME280;17145;49.902;8.680;'2023-05-10 02:02:00';99330;;;13;63
30343;BME280;17145;49.902;8.680;'2023-05-10 02:04:28';99330;;;13;63
30343;BME280;17145;49.902;8.680;'2023-05-10 02:06:55';99330;;;13;63
30343;BME280;17145;49.902;8.680;'2023-05-10 02:09:22';99340;;;13;62
30343;BME280;17145;49.902;8.680;'2023-05-10 02:11:50';99340;;;13;62
30343;BME280;17145;49.902;8.680;'2023-05-10 02:14:17';99340;;;13;62
30343;BME280;17145;49.902;8.680;'2023-05-10 02:16:45';99340;;;13;63
30343;BME280;17145;49.902;8.680;'2023-05-10 02:19:12';99340;;;13;63
30343;BME280;17145;49.902;8.680;'2023-05-10 02:21:40';99340;;;13;63
30343;BME280;17145;49.902;8.680;'2023-05-10 02:24:07';99340;;;13;63
30343;BME280;17145;49.902;8.680;'2023-05-10 02:26:34';99340;;;13;62
30343;BME280;17145;49.902;8.680;'2023-05-10 02:29:02';99340;;;13;62
30343;BME280;17145;49.902;8.680;'2023-05-10 02:31:29';99340;;;14;62
30343;BME280;17145;49.902;8.680;'2023-05-10 02:33:57';99340;;;13;62
30343;BME280;17145;49.902;8.680;'2023-05-10 02:36:24';99340;;;13;62
30343;BME280;17145;49.902;8.680;'2023-05-10 02:38:51';99340;;;13;62
30343;BME280;17145;49.902;8.680;'2023-05-10 02:41:19';99350;;;13;63
30343;BME280;17145;49.902;8.680;'2023-05-10 02:43:46';99350;;;13;63
30343;BME280;17145;49.902;8.680;'2023-05-10 02:46:15';99350;;;13;63
30343;BME280;17145;49.902;8.680;'2023-05-10 02:48:43';99350;;;13;63
30343;BME280;17145;49.902;8.680;'2023-05-10 02:51:11';99360;;;12;65
30343;BME280;17145;49.902;8.680;'2023-05-10 02:53:39';99360;;;13;64
30343;BME280;17145;49.902;8.680;'2023-05-10 02:56:06';99350;;;13;64
30343;BME280;17145;49.902;8.680;'2023-05-10 02:58:33';99360;;;13;64
30343;BME280;17145;49.902;8.680;'2023-05-10 03:01:02';99360;;;12;65
30343;BME280;17145;49.902;8.680;'2023-05-10 03:03:30';99360;;;13;65
30343;BME280;17145;49.902;8.680;'2023-05-10 03:05:57';99360;;;13;64
30343;BME280;17145;49.902;8.680;'2023-05-10 03:08:25';99360;;;13;65
30343;BME280;17145;49.902;8.680;'2023-05-10 03:10:53';99360;;;13;64
30343;BME280;17145;49.902;8.680;'2023-05-10 03:13:32';99350;;;13;65
30343;BME280;17145;49.902;8.680;'2023-05-10 03:16:00';99350;;;13;64
30343;BME280;17145;49.902;8.680;'2023-05-10 03:18:29';99350;;;13;65
30343;BME280;17145;49.902;8.680;'2023-05-10 03:21:09';99360;;;13;65
30343;BME280;17145;49.902;8.680;'2023-05-10 03:26:30';99360;;;13;64
30343;BME280;17145;49.902;8.680;'2023-05-10 03:29:22';99360;;;13;64
30343;BME280;17145;49.902;8.680;'2023-05-10 03:32:09';99360;;;13;64
30343;BME280;17145;49.902;8.680;'2023-05-10 03:34:46';99360;;;13;63
30343;BME280;17145;49.902;8.680;'2023-05-10 03:37:20';99370;;;13;63
30343;BME280;17145;49.902;8.680;'2023-05-10 03:39:53';99370;;;13;63
30343;BME280;17145;49.902;8.680;'2023-05-10 03:42:25';99370;;;14;63
30343;BME280;17145;49.902;8.680;'2023-05-10 03:44:58';99370;;;13;63
30343;BME280;17145;49.902;8.680;'2023-05-10 03:47:35';99380;;;13;63
30343;BME280;17145;49.902;8.680;'2023-05-10 03:50:09';99380;;;13;63
30343;BME280;17145;49.902;8.680;'2023-05-10 03:52:41';99380;;;13;63
30343;BME280;17145;49.902;8.680;'2023-05-10 03:55:13';99380;;;13;63
30343;BME280;17145;49.902;8.680;'2023-05-10 03:57:44';99380;;;13;63
30343;BME280;17145;49.902;8.680;'2023-05-10 04:00:14';99380;;;13;62
30343;BME280;17145;49.902;8.680;'2023-05-10 04:02:47';99380;;;13;62
30343;BME280;17145;49.902;8.680;'2023-05-10 04:05:16';99380;;;14;62
30343;BME280;17145;49.902;8.680;'2023-05-10 04:07:45';99380;;;13;62
30343;BME280;17145;49.902;8.680;'2023-05-10 04:10:14';99380;;;13;62
30343;BME280;17145;49.902;8.680;'2023-05-10 04:12:43';99380;;;13;61
30343;BME280;17145;49.902;8.680;'2023-05-10 04:15:14';99390;;;13;62
30343;BME280;17145;49.902;8.680;'2023-05-10 04:17:43';99390;;;13;62
30343;BME280;17145;49.902;8.680;'2023-05-10 04:20:12';99390;;;13;61
30343;BME280;17145;49.902;8.680;'2023-05-10 04:22:41';99400;;;13;61
30343;BME280;17145;49.902;8.680;'2023-05-10 04:25:11';99390;;;14;61
30343;BME280;17145;49.902;8.680;'2023-05-10 04:27:41';99400;;;14;61
30343;BME280;17145;49.902;8.680;'2023-05-10 04:30:11';99400;;;14;61
30343;BME280;17145;49.902;8.680;'2023-05-10 04:32:39';99400;;;14;61
30343;BME280;17145;49.902;8.680;'2023-05-10 04:35:09';99400;;;13;61
30343;BME280;17145;49.902;8.680;'2023-05-10 04:37:38';99400;;;13;61
30343;BME280;17145;49.902;8.680;'2023-05-10 04:40:07';99400;;;14;61
30343;BME280;17145;49.902;8.680;'2023-05-10 04:42:38';99400;;;13;61
30343;BME280;17145;49.902;8.680;'2023-05-10 04:45:11';99400;;;13;61
30343;BME280;17145;49.902;8.680;'2023-05-10 04:47:39';99400;;;13;61
30343;BME280;17145;49.902;8.680;'2023-05-10 04:50:07';99390;;;13;61
30343;BME280;17145;49.902;8.680;'2023-05-10 04:52:44';99400;;;13;61
30343;BME280;17145;49.902;8.680;'2023-05-10 04:55:15';99390;;;13;61
30343;BME280;17145;49.902;8.680;'2023-05-10 04:57:50';99390;;;13;61
30343;BME280;17145;49.902;8.680;'2023-05-10 05:00:18';99390;;;13;61
30343;BME280;17145;49.902;8.680;'2023-05-10 05:02:45';99400;;;13;61
30343;BME280;17145;49.902;8.680;'2023-05-10 05:05:13';99390;;;13;61
30343;BME280;17145;49.902;8.680;'2023-05-10 05:07:41';99400;;;13;61
30343;BME280;17145;49.902;8.680;'2023-05-10 05:10:09';99400;;;13;61
30343;BME280;17145;49.902;8.680;'2023-05-10 05:12:51';99400;;;13;61
30343;BME280;17145;49.902;8.680;'2023-05-10 05:15:27';99400;;;13;61
30343;BME280;17145;49.902;8.680;'2023-05-10 05:17:59';99400;;;13;61
30343;BME280;17145;49.902;8.680;'2023-05-10 05:20:31';99400;;;13;61
30343;BME280;17145;49.902;8.680;'2023-05-10 05:23:07';99400;;;13;61
30343;BME280;17145;49.902;8.680;'2023-05-10 05:25:35';99410;;;13;61
30343;BME280;17145;49.902;8.680;'2023-05-10 05:28:04';99420;;;13;61
30343;BME280;17145;49.902;8.680;'2023-05-10 05:30:33';99420;;;13;61
30343;BME280;17145;49.902;8.680;'2023-05-10 05:33:05';99420;;;13;61
30343;BME280;17145;49.902;8.680;'2023-05-10 05:35:32';99420;;;13;61
30343;BME280;17145;49.902;8.680;'2023-05-10 05:38:00';99420;;;13;61
30343;BME280;17145;49.902;8.680;'2023-05-10 05:40:28';99420;;;13;61
30343;BME280;17145;49.902;8.680;'2023-05-10 05:42:55';99420;;;13;61
30343;BME280;17145;49.902;8.680;'2023-05-10 05:45:23';99420;;;13;61
30343;BME280;17145;49.902;8.680;'2023-05-10 05:47:51';99420;;;13;61
30343;BME280;17145;49.902;8.680;'2023-05-10 05:50:18';99420;;;13;61
30343;BME280;17145;49.902;8.680;'2023-05-10 05:52:45';99420;;;13;61
30343;BME280;17145;49.902;8.680;'2023-05-10 05:55:13';99420;;;13;61
30343;BME280;17145;49.902;8.680;'2023-05-10 05:57:40';99420;;;13;61
30343;BME280;17145;49.902;8.680;'2023-05-10 06:00:09';99420;;;13;61
30343;BME280;17145;49.902;8.680;'2023-05-10 06:02:36';99420;;;13;61
30343;BME280;17145;49.902;8.680;'2023-05-10 06:05:04';99420;;;13;61
30343;BME280;17145;49.902;8.680;'2023-05-10 06:07:32';99420;;;13;61
30343;BME280;17145;49.902;8.680;'2023-05-10 06:09:59';99420;;;13;61
30343;BME280;17145;49.902;8.680;'2023-05-10 06:12:26';99420;;;13;61
30343;BME280;17145;49.902;8.680;'2023-05-10 06:14:54';99420;;;13;60
30343;BME280;17145;49.902;8.680;'2023-05-10 06:17:21';99420;;;13;60
30343;BME280;17145;49.902;8.680;'2023-05-10 06:19:49';99430;;;13;60
30343;BME280;17145;49.902;8.680;'2023-05-10 06:22:16';99430;;;13;60
30343;BME280;17145;49.902;8.680;'2023-05-10 06:24:43';99430;;;13;60
30343;BME280;17145;49.902;8.680;'2023-05-10 06:27:11';99430;;;13;60
30343;BME280;17145;49.902;8.680;'2023-05-10 06:29:38';99430;;;13;60
30343;BME280;17145;49.902;8.680;'2023-05-10 06:32:06';99440;;;13;61
30343;BME280;17145;49.902;8.680;'2023-05-10 06:34:33';99440;;;13;60
30343;BME280;17145;49.902;8.680;'2023-05-10 06:37:01';99430;;;13;60
30343;BME280;17145;49.902;8.680;'2023-05-10 06:39:28';99440;;;13;61
30343;BME280;17145;49.902;8.680;'2023-05-10 06:41:56';99440;;;13;61
30343;BME280;17145;49.902;8.680;'2023-05-10 06:44:23';99450;;;13;61
30343;BME280;17145;49.902;8.680;'2023-05-10 06:46:50';99450;;;13;61
30343;BME280;17145;49.902;8.680;'2023-05-10 06:49:18';99450;;;13;61
30343;BME280;17145;49.902;8.680;'2023-05-10 06:51:45';99450;;;13;61
30343;BME280;17145;49.902;8.680;'2023-05-10 06:54:13';99450;;;13;61
30343;BME280;17145;49.902;8.680;'2023-05-10 06:56:40';99450;;;13;61
30343;BME280;17145;49.902;8.680;'2023-05-10 06:59:08';99460;;;13;61
30343;BME280;17145;49.902;8.680;'2023-05-10 07:01:35';99450;;;13;61
30343;BME280;17145;49.902;8.680;'2023-05-10 07:04:03';99450;;;13;61
30343;BME280;17145;49.902;8.680;'2023-05-10 07:06:30';99460;;;13;61
30343;BME280;17145;49.902;8.680;'2023-05-10 07:08:58';99460;;;13;61
30343;BME280;17145;49.902;8.680;'2023-05-10 07:11:25';99470;;;13;61
30343;BME280;17145;49.902;8.680;'2023-05-10 07:13:53';99470;;;13;61
30343;BME280;17145;49.902;8.680;'2023-05-10 07:16:20';99470;;;13;61
30343;BME280;17145;49.902;8.680;'2023-05-10 07:18:47';99470;;;13;60
30343;BME280;17145;49.902;8.680;'2023-05-10 07:21:15';99470;;;13;60
30343;BME280;17145;49.902;8.680;'2023-05-10 07:23:43';99480;;;13;60
30343;BME280;17145;49.902;8.680;'2023-05-10 07:26:10';99480;;;13;60
30343;BME280;17145;49.902;8.680;'2023-05-10 07:28:38';99480;;;13;60
30343;BME280;17145;49.902;8.680;'2023-05-10 07:31:06';99480;;;14;60
30343;BME280;17145;49.902;8.680;'2023-05-10 07:33:34';99480;;;14;60
30343;BME280;17145;49.902;8.680;'2023-05-10 07:36:02';99480;;;14;60
30343;BME280;17145;49.902;8.680;'2023-05-10 07:38:29';99480;;;14;59
30343;BME280;17145;49.902;8.680;'2023-05-10 07:40:56';99490;;;13;59
30343;BME280;17145;49.902;8.680;'2023-05-10 07:43:24';99490;;;14;59
30343;BME280;17145;49.902;8.680;'2023-05-10 07:45:52';99490;;;13;59
30343;BME280;17145;49.902;8.680;'2023-05-10 07:48:20';99490;;;13;59
30343;BME280;17145;49.902;8.680;'2023-05-10 07:50:47';99490;;;14;59
30343;BME280;17145;49.902;8.680;'2023-05-10 07:53:14';99490;;;13;59
30343;BME280;17145;49.902;8.680;'2023-05-10 07:55:51';99500;;;13;58
30343;BME280;17145;49.902;8.680;'2023-05-10 07:58:19';99500;;;13;59
30343;BME280;17145;49.902;8.680;'2023-05-10 08:00:47';99500;;;14;59
30343;BME280;17145;49.902;8.680;'2023-05-10 08:03:14';99500;;;14;59
30343;BME280;17145;49.902;8.680;'2023-05-10 08:05:43';99500;;;14;58
30343;BME280;17145;49.902;8.680;'2023-05-10 08:08:11';99500;;;14;58
30343;BME280;17145;49.902;8.680;'2023-05-10 08:10:39';99500;;;14;58
30343;BME280;17145;49.902;8.680;'2023-05-10 08:13:07';99510;;;14;58
30343;BME280;17145;49.902;8.680;'2023-05-10 08:15:35';99520;;;14;58
30343;BME280;17145;49.902;8.680;'2023-05-10 08:18:03';99520;;;14;58
30343;BME280;17145;49.902;8.680;'2023-05-10 08:20:31';99520;;;14;58
30343;BME280;17145;49.902;8.680;'2023-05-10 08:22:58';99530;;;14;58
30343;BME280;17145;49.902;8.680;'2023-05-10 08:25:26';99530;;;14;58
30343;BME280;17145;49.902;8.680;'2023-05-10 08:27:53';99530;;;14;57
30343;BME280;17145;49.902;8.680;'2023-05-10 08:30:21';99530;;;14;58
30343;BME280;17145;49.902;8.680;'2023-05-10 08:32:48';99530;;;14;57
30343;BME280;17145;49.902;8.680;'2023-05-10 08:35:15';99530;;;14;57
30343;BME280;17145;49.902;8.680;'2023-05-10 08:37:43';99540;;;14;58
30343;BME280;17145;49.902;8.680;'2023-05-10 08:40:10';99540;;;14;58
30343;BME280;17145;49.902;8.680;'2023-05-10 08:42:38';99540;;;14;58
30343;BME280;17145;49.902;8.680;'2023-05-10 08:45:06';99540;;;14;58
30343;BME280;17145;49.902;8.680;'2023-05-10 08:47:34';99540;;;14;58
30343;BME280;17145;49.902;8.680;'2023-05-10 08:50:01';99540;;;14;58
30343;BME280;17145;49.902;8.680;'2023-05-10 08:52:29';99540;;;14;58
30343;BME280;17145;49.902;8.680;'2023-05-10 08:54:56';99540;;;14;58
30343;BME280;17145;49.902;8.680;'2023-05-10 08:57:24';99540;;;14;58
30343;BME280;17145;49.902;8.680;'2023-05-10 08:59:52';99550;;;14;58
30343;BME280;17145;49.902;8.680;'2023-05-10 09:02:19';99540;;;14;58
30343;BME280;17145;49.902;8.680;'2023-05-10 09:04:48';99550;;;13;59
30343;BME280;17145;49.902;8.680;'2023-05-10 09:07:17';99540;;;14;59
30343;BME280;17145;49.902;8.680;'2023-05-10 09:09:44';99540;;;14;59
30343;BME280;17145;49.902;8.680;'2023-05-10 09:12:12';99550;;;14;59
30343;BME280;17145;49.902;8.680;'2023-05-10 09:14:39';99550;;;14;58
30343;BME280;17145;49.902;8.680;'2023-05-10 09:17:06';99550;;;14;58
30343;BME280;17145;49.902;8.680;'2023-05-10 09:19:34';99550;;;14;58
30343;BME280;17145;49.902;8.680;'2023-05-10 09:22:01';99550;;;14;58
30343;BME280;17145;49.902;8.680;'2023-05-10 09:24:28';99550;;;14;57
30343;BME280;17145;49.902;8.680;'2023-05-10 09:26:56';99560;;;14;57
30343;BME280;17145;49.902;8.680;'2023-05-10 09:29:23';99560;;;14;57
30343;BME280;17145;49.902;8.680;'2023-05-10 09:31:51';99550;;;15;57
30343;BME280;17145;49.902;8.680;'2023-05-10 09:34:18';99560;;;15;58
30343;BME280;17145;49.902;8.680;'2023-05-10 09:36:45';99560;;;15;56
30343;BME280;17145;49.902;8.680;'2023-05-10 09:39:13';99560;;;15;56
30343;BME280;17145;49.902;8.680;'2023-05-10 09:41:40';99560;;;15;56
30343;BME280;17145;49.902;8.680;'2023-05-10 09:44:08';99560;;;15;57
30343;BME280;17145;49.902;8.680;'2023-05-10 09:46:35';99560;;;15;57
30343;BME280;17145;49.902;8.680;'2023-05-10 09:49:03';99560;;;15;56
30343;BME280;17145;49.902;8.680;'2023-05-10 09:51:30';99560;;;15;56
30343;BME280;17145;49.902;8.680;'2023-05-10 09:53:58';99560;;;15;56
30343;BME280;17145;49.902;8.680;'2023-05-10 09:56:27';99560;;;15;56
30343;BME280;17145;49.902;8.680;'2023-05-10 09:58:55';99570;;;15;56
30343;BME280;17145;49.902;8.680;'2023-05-10 10:01:22';99570;;;14;56
30343;BME280;17145;49.902;8.680;'2023-05-10 10:03:50';99560;;;15;57
30343;BME280;17145;49.902;8.680;'2023-05-10 10:06:18';99570;;;15;56
30343;BME280;17145;49.902;8.680;'2023-05-10 10:08:45';99570;;;14;56
30343;BME280;17145;49.902;8.680;'2023-05-10 10:11:13';99570;;;15;56
30343;BME280;17145;49.902;8.680;'2023-05-10 10:13:40';99570;;;15;56
30343;BME280;17145;49.902;8.680;'2023-05-10 10:16:07';99570;;;15;56
30343;BME280;17145;49.902;8.680;'2023-05-10 10:18:35';99570;;;15;55
30343;BME280;17145;49.902;8.680;'2023-05-10 10:21:02';99570;;;15;55
30343;BME280;17145;49.902;8.680;'2023-05-10 10:23:30';99580;;;15;54
30343;BME280;17145;49.902;8.680;'2023-05-10 10:25:57';99580;;;15;54
30343;BME280;17145;49.902;8.680;'2023-05-10 10:28:24';99580;;;15;54
30343;BME280;17145;49.902;8.680;'2023-05-10 10:30:52';99580;;;15;54
30343;BME280;17145;49.902;8.680;'2023-05-10 10:33:19';99580;;;15;54
30343;BME280;17145;49.902;8.680;'2023-05-10 10:35:47';99580;;;14;55
30343;BME280;17145;49.902;8.680;'2023-05-10 10:38:14';99590;;;14;55
30343;BME280;17145;49.902;8.680;'2023-05-10 10:40:43';99600;;;15;56
30343;BME280;17145;49.902;8.680;'2023-05-10 10:43:12';99600;;;14;56
30343;BME280;17145;49.902;8.680;'2023-05-10 10:45:41';99600;;;14;57
30343;BME280;17145;49.902;8.680;'2023-05-10 10:48:10';99600;;;14;57
30343;BME280;17145;49.902;8.680;'2023-05-10 10:50:39';99600;;;15;57
30343;BME280;17145;49.902;8.680;'2023-05-10 10:53:10';99590;;;14;57
30343;BME280;17145;49.902;8.680;'2023-05-10 10:55:39';99600;;;15;58
30343;BME280;17145;49.902;8.680;'2023-05-10 10:58:06';99600;;;15;58
30343;BME280;17145;49.902;8.680;'2023-05-10 11:00:35';99610;;;15;58
30343;BME280;17145;49.902;8.680;'2023-05-10 11:03:04';99610;;;15;56
30343;BME280;17145;49.902;8.680;'2023-05-10 11:05:32';99610;;;15;57
30343;BME280;17145;49.902;8.680;'2023-05-10 11:08:00';99600;;;15;57
30343;BME280;17145;49.902;8.680;'2023-05-10 11:10:29';99610;;;15;55
30343;BME280;17145;49.902;8.680;'2023-05-10 11:12:57';99610;;;15;56
30343;BME280;17145;49.902;8.680;'2023-05-10 11:15:25';99610;;;16;55
30343;BME280;17145;49.902;8.680;'2023-05-10 11:17:54';99610;;;15;56
30343;BME280;17145;49.902;8.680;'2023-05-10 11:20:22';99610;;;15;56
30343;BME280;17145;49.902;8.680;'2023-05-10 11:22:49';99610;;;15;56
30343;BME280;17145;49.902;8.680;'2023-05-10 11:25:17';99600;;;16;56
30343;BME280;17145;49.902;8.680;'2023-05-10 11:27:46';99600;;;16;55
30343;BME280;17145;49.902;8.680;'2023-05-10 11:30:17';99610;;;16;55
30343;BME280;17145;49.902;8.680;'2023-05-10 11:32:47';99610;;;16;54
30343;BME280;17145;49.902;8.680;'2023-05-10 11:35:16';99610;;;16;54
30343;BME280;17145;49.902;8.680;'2023-05-10 11:37:46';99610;;;16;55
30343;BME280;17145;49.902;8.680;'2023-05-10 11:40:16';99620;;;16;55
30343;BME280;17145;49.902;8.680;'2023-05-10 11:42:53';99640;;;15;55
30343;BME280;17145;49.902;8.680;'2023-05-10 11:45:21';99640;;;15;55
30343;BME280;17145;49.902;8.680;'2023-05-10 11:47:48';99630;;;15;56
30343;BME280;17145;49.902;8.680;'2023-05-10 11:50:16';99640;;;15;56
30343;BME280;17145;49.902;8.680;'2023-05-10 11:52:49';99640;;;14;56
30343;BME280;17145;49.902;8.680;'2023-05-10 11:55:18';99640;;;14;56
30343;BME280;17145;49.902;8.680;'2023-05-10 11:57:46';99640;;;14;57
30343;BME280;17145;49.902;8.680;'2023-05-10 12:00:18';99640;;;15;57
30343;BME280;17145;49.902;8.680;'2023-05-10 12:02:47';99640;;;15;57
30343;BME280;17145;49.902;8.680;'2023-05-10 12:05:15';99640;;;15;58
30343;BME280;17145;49.902;8.680;'2023-05-10 12:07:42';99640;;;14;57
30343;BME280;17145;49.902;8.680;'2023-05-10 12:10:10';99640;;;14;57
30343;BME280;17145;49.902;8.680;'2023-05-10 12:12:38';99650;;;15;57
30343;BME280;17145;49.902;8.680;'2023-05-10 12:15:08';99640;;;15;57
30343;BME280;17145;49.902;8.680;'2023-05-10 12:17:36';99640;;;14;56
30343;BME280;17145;49.902;8.680;'2023-05-10 12:20:04';99640;;;15;57
30343;BME280;17145;49.902;8.680;'2023-05-10 12:22:32';99640;;;14;57
30343;BME280;17145;49.902;8.680;'2023-05-10 12:24:59';99640;;;14;57
30343;BME280;17145;49.902;8.680;'2023-05-10 12:27:37';99640;;;15;57
30343;BME280;17145;49.902;8.680;'2023-05-10 12:30:17';99650;;;14;57
30343;BME280;17145;49.902;8.680;'2023-05-10 12:33:00';99650;;;15;57
30343;BME280;17145;49.902;8.680;'2023-05-10 12:35:29';99640;;;15;57
30343;BME280;17145;49.902;8.680;'2023-05-10 12:37:56';99640;;;15;57
30343;BME280;17145;49.902;8.680;'2023-05-10 12:40:26';99640;;;15;56
30343;BME280;17145;49.902;8.680;'2023-05-10 12:42:55';99640;;;16;56
30343;BME280;17145;49.902;8.680;'2023-05-10 12:48:08';99640;;;15;55
30343;BME280;17145;49.902;8.680;'2023-05-10 12:50:44';99650;;;15;55
30343;BME280;17145;49.902;8.680;'2023-05-10 12:53:12';99650;;;15;54
30343;BME280;17145;49.902;8.680;'2023-05-10 12:55:46';99660;;;15;55
30343;BME280;17145;49.902;8.680;'2023-05-10 13:01:11';99660;;;14;54
30343;BME280;17145;49.902;8.680;'2023-05-10 13:03:39';99660;;;14;54
30343;BME280;17145;49.902;8.680;'2023-05-10 13:06:06';99670;;;14;53
30343;BME280;17145;49.902;8.680;'2023-05-10 13:08:39';99660;;;14;54
30343;BME280;17145;49.902;8.680;'2023-05-10 13:11:07';99670;;;14;54
30343;BME280;17145;49.902;8.680;'2023-05-10 13:13:39';99670;;;14;54
30343;BME280;17145;49.902;8.680;'2023-05-10 13:16:13';99670;;;14;54
30343;BME280;17145;49.902;8.680;'2023-05-10 13:18:40';99680;;;14;54
30343;BME280;17145;49.902;8.680;'2023-05-10 13:21:09';99680;;;14;54
30343;BME280;17145;49.902;8.680;'2023-05-10 13:23:48';99680;;;14;53
30343;BME280;17145;49.902;8.680;'2023-05-10 13:26:16';99680;;;14;54
30343;BME280;17145;49.902;8.680;'2023-05-10 13:28:45';99680;;;14;54
30343;BME280;17145;49.902;8.680;'2023-05-10 13:31:15';99670;;;14;54
30343;BME280;17145;49.902;8.680;'2023-05-10 13:33:44';99670;;;14;53
30343;BME280;17145;49.902;8.680;'2023-05-10 13:36:12';99670;;;14;53
30343;BME280;17145;49.902;8.680;'2023-05-10 13:38:39';99670;;;14;53
30343;BME280;17145;49.902;8.680;'2023-05-10 13:41:08';99670;;;15;54
30343;BME280;17145;49.902;8.680;'2023-05-10 13:43:36';99680;;;15;52
30343;BME280;17145;49.902;8.680;'2023-05-10 13:46:04';99670;;;15;50
30343;BME280;17145;49.902;8.680;'2023-05-10 13:48:31';99670;;;16;51
30343;BME280;17145;49.902;8.680;'2023-05-10 13:51:00';99660;;;16;52
30343;BME280;17145;49.902;8.680;'2023-05-10 13:53:29';99660;;;17;49
30343;BME280;17145;49.902;8.680;'2023-05-10 13:56:03';99660;;;17;45
30343;BME280;17145;49.902;8.680;'2023-05-10 13:58:31';99670;;;17;44
30343;BME280;17145;49.902;8.680;'2023-05-10 14:00:59';99660;;;16;44
30343;BME280;17145;49.902;8.680;'2023-05-10 14:03:27';99670;;;16;45
30343;BME280;17145;49.902;8.680;'2023-05-10 14:05:55';99670;;;17;44
30343;BME280;17145;49.902;8.680;'2023-05-10 14:08:24';99660;;;17;44
30343;BME280;17145;49.902;8.680;'2023-05-10 14:10:53';99660;;;17;45
30343;BME280;17145;49.902;8.680;'2023-05-10 14:13:21';99670;;;17;45
30343;BME280;17145;49.902;8.680;'2023-05-10 14:15:48';99660;;;18;43
30343;BME280;17145;49.902;8.680;'2023-05-10 14:18:22';99660;;;18;43
30343;BME280;17145;49.902;8.680;'2023-05-10 14:20:52';99660;;;18;42
30343;BME280;17145;49.902;8.680;'2023-05-10 14:23:20';99660;;;18;42
30343;BME280;17145;49.902;8.680;'2023-05-10 14:25:47';99660;;;18;43
30343;BME280;17145;49.902;8.680;'2023-05-10 14:28:15';99660;;;18;43
30343;BME280;17145;49.902;8.680;'2023-05-10 14:30:42';99660;;;18;45
30343;BME280;17145;49.902;8.680;'2023-05-10 14:33:11';99660;;;17;42
30343;BME280;17145;49.902;8.680;'2023-05-10 14:35:45';99660;;;17;43
30343;BME280;17145;49.902;8.680;'2023-05-10 14:38:24';99670;;;17;45
30343;BME280;17145;49.902;8.680;'2023-05-10 14:40:52';99670;;;17;43
30343;BME280;17145;49.902;8.680;'2023-05-10 14:43:19';99680;;;17;42
30343;BME280;17145;49.902;8.680;'2023-05-10 14:45:48';99670;;;17;42
30343;BME280;17145;49.902;8.680;'2023-05-10 14:48:15';99670;;;17;41
30343;BME280;17145;49.902;8.680;'2023-05-10 14:50:43';99670;;;18;42
30343;BME280;17145;49.902;8.680;'2023-05-10 14:53:11';99670;;;18;43
30343;BME280;17145;49.902;8.680;'2023-05-10 14:55:38';99670;;;18;40
30343;BME280;17145;49.902;8.680;'2023-05-10 14:58:06';99670;;;19;41
30343;BME280;17145;49.902;8.680;'2023-05-10 15:00:33';99680;;;19;39
30343;BME280;17145;49.902;8.680;'2023-05-10 15:03:01';99670;;;19;38
30343;BME280;17145;49.902;8.680;'2023-05-10 15:05:28';99660;;;19;40
30343;BME280;17145;49.902;8.680;'2023-05-10 15:07:55';99670;;;18;39
30343;BME280;17145;49.902;8.680;'2023-05-10 15:10:23';99670;;;18;39
30343;BME280;17145;49.902;8.680;'2023-05-10 15:12:50';99670;;;17;39
30343;BME280;17145;49.902;8.680;'2023-05-10 15:15:18';99680;;;18;40
30343;BME280;17145;49.902;8.680;'2023-05-10 15:17:45';99680;;;17;40
30343;BME280;17145;49.902;8.680;'2023-05-10 15:20:13';99680;;;17;40
30343;BME280;17145;49.902;8.680;'2023-05-10 15:22:40';99680;;;17;41
30343;BME280;17145;49.902;8.680;'2023-05-10 15:25:08';99680;;;17;38
30343;BME280;17145;49.902;8.680;'2023-05-10 15:27:36';99670;;;17;39
30343;BME280;17145;49.902;8.680;'2023-05-10 15:30:06';99670;;;17;39
30343;BME280;17145;49.902;8.680;'2023-05-10 15:32:34';99670;;;17;40
30343;BME280;17145;49.902;8.680;'2023-05-10 15:35:03';99670;;;17;40
30343;BME280;17145;49.902;8.680;'2023-05-10 15:37:31';99670;;;17;40
30343;BME280;17145;49.902;8.680;'2023-05-10 15:39:58';99680;;;17;41
30343;BME280;17145;49.902;8.680;'2023-05-10 15:42:25';99670;;;17;41
30343;BME280;17145;49.902;8.680;'2023-05-10 15:44:53';99680;;;17;41
30343;BME280;17145;49.902;8.680;'2023-05-10 15:47:20';99680;;;17;41
30343;BME280;17145;49.902;8.680;'2023-05-10 15:49:48';99680;;;18;42
30343;BME280;17145;49.902;8.680;'2023-05-10 15:52:16';99670;;;17;41
30343;BME280;17145;49.902;8.680;'2023-05-10 15:54:43';99670;;;18;41
30343;BME280;17145;49.902;8.680;'2023-05-10 15:57:10';99670;;;18;41
30343;BME280;17145;49.902;8.680;'2023-05-10 15:59:38';99670;;;18;41
30343;BME280;17145;49.902;8.680;'2023-05-10 16:02:06';99670;;;18;40
30343;BME280;17145;49.902;8.680;'2023-05-10 16:04:33';99670;;;18;40
30343;BME280;17145;49.902;8.680;'2023-05-10 16:07:01';99670;;;18;40
30343;BME280;17145;49.902;8.680;'2023-05-10 16:09:28';99670;;;18;40
30343;BME280;17145;49.902;8.680;'2023-05-10 16:11:56';99670;;;17;40
30343;BME280;17145;49.902;8.680;'2023-05-10 16:14:23';99670;;;17;40
30343;BME280;17145;49.902;8.680;'2023-05-10 16:16:50';99670;;;17;41
30343;BME280;17145;49.902;8.680;'2023-05-10 16:19:19';99660;;;17;41
30343;BME280;17145;49.902;8.680;'2023-05-10 16:21:46';99660;;;17;42
30343;BME280;17145;49.902;8.680;'2023-05-10 16:24:13';99660;;;17;42
30343;BME280;17145;49.902;8.680;'2023-05-10 16:26:41';99670;;;17;42
30343;BME280;17145;49.902;8.680;'2023-05-10 16:29:08';99670;;;16;42
30343;BME280;17145;49.902;8.680;'2023-05-10 16:31:36';99670;;;17;42
30343;BME280;17145;49.902;8.680;'2023-05-10 16:34:03';99660;;;17;42
30343;BME280;17145;49.902;8.680;'2023-05-10 16:36:30';99670;;;17;42